sensor_id;sensor_type;location;lat;lon;timestamp;pressure;altitude;pressure_sealevel;temperature;humidity
16255;BME280;8235;52.198;9.904;2024-01-30T00:01:50;102082.31;;;4.05;99.33
16255;BME280;8235;52.198;9.904;2024-01-30T00:04:17;102079.69;;;4.05;100.00
16255;BME280;8235;52.198;9.904;2024-01-30T00:06:45;102070.91;;;4.05;100.00
16255;BME280;8235;52.198;9.904;2024-01-30T00:09:11;102069.19;;;4.02;100.00
16255;BME280;8235;52.198;9.904;2024-01-30T00:11:38;102070.09;;;4.00;100.00
16255;BME280;8235;52.198;9.904;2024-01-30T00:14:05;102071.00;;;3.96;100.00
16255;BME280;8235;52.198;9.904;2024-01-30T00:16:31;102072.84;;;3.92;99.80
16255;BME280;8235;52.198;9.904;2024-01-30T00:18:59;102063.22;;;3.90;100.00
16255;BME280;8235;52.198;9.904;2024-01-30T00:21:27;102064.09;;;3.90;100.00
16255;BME280;8235;52.198;9.904;2024-01-30T00:23:55;102067.59;;;3.89;100.00
16255;BME280;8235;52.198;9.904;2024-01-30T00:26:21;102068.47;;;3.90;100.00
16255;BME280;8235;52.198;9.904;2024-01-30T00:28:48;102070.13;;;3.95;100.00
16255;BME280;8235;52.198;9.904;2024-01-30T00:31:14;102066.63;;;3.96;100.00
16255;BME280;8235;52.198;9.904;2024-01-30T00:33:41;102075.34;;;4.01;100.00
16255;BME280;8235;52.198;9.904;2024-01-30T00:36:08;102075.22;;;4.10;100.00
16255;BME280;8235;52.198;9.904;2024-01-30T00:38:35;102068.97;;;4.17;100.00
16255;BME280;8235;52.198;9.904;2024-01-30T00:41:04;102075.03;;;4.23;100.00
16255;BME280;8235;52.198;9.904;2024-01-30T00:43:30;102063.59;;;4.25;100.00
16255;BME280;8235;52.198;9.904;2024-01-30T00:45:57;102065.34;;;4.26;100.00
16255;BME280;8235;52.198;9.904;2024-01-30T00:48:24;102061.88;;;4.21;100.00
16255;BME280;8235;52.198;9.904;2024-01-30T00:50:50;102057.50;;;4.20;100.00
16255;BME280;8235;52.198;9.904;2024-01-30T00:53:17;102065.44;;;4.18;100.00
16255;BME280;8235;52.198;9.904;2024-01-30T00:55:43;102062.81;;;4.17;100.00
16255;BME280;8235;52.198;9.904;2024-01-30T00:58:11;102057.59;;;4.12;100.00
16255;BME280;8235;52.198;9.904;2024-01-30T01:00:38;102059.44;;;4.07;100.00
16255;BME280;8235;52.198;9.904;2024-01-30T01:03:05;102067.41;;;4.04;100.00
16255;BME280;8235;52.198;9.904;2024-01-30T01:05:31;102071.84;;;3.99;100.00
16255;BME280;8235;52.198;9.904;2024-01-30T01:07:58;102077.16;;;3.96;100.00
16255;BME280;8235;52.198;9.904;2024-01-30T01:10:24;102072.84;;;3.92;100.00
16255;BME280;8235;52.198;9.904;2024-01-30T01:12:51;102071.13;;;3.88;100.00
16255;BME280;8235;52.198;9.904;2024-01-30T01:15:18;102074.69;;;3.84;100.00
16255;BME280;8235;52.198;9.904;2024-01-30T01:17:45;102074.72;;;3.81;100.00
16255;BME280;8235;52.198;9.904;2024-01-30T01:20:11;102073.88;;;3.79;100.00
16255;BME280;8235;52.198;9.904;2024-01-30T01:22:38;102082.66;;;3.78;100.00
16255;BME280;8235;52.198;9.904;2024-01-30T01:25:06;102069.50;;;3.76;100.00
16255;BME280;8235;52.198;9.904;2024-01-30T01:27:33;102076.56;;;3.76;100.00
16255;BME280;8235;52.198;9.904;2024-01-30T01:30:07;102075.72;;;3.74;100.00
16255;BME280;8235;52.198;9.904;2024-01-30T01:32:36;102071.31;;;3.74;100.00
16255;BME280;8235;52.198;9.904;2024-01-30T01:35:04;102068.69;;;3.73;100.00
16255;BME280;8235;52.198;9.904;2024-01-30T01:37:31;102068.69;;;3.73;100.00
16255;BME280;8235;52.198;9.904;2024-01-30T01:39:58;102051.97;;;3.75;100.00
16255;BME280;8235;52.198;9.904;2024-01-30T01:42:24;102056.34;;;3.76;100.00
16255;BME280;8235;52.198;9.904;2024-01-30T01:44:51;102061.66;;;3.73;100.00
16255;BME280;8235;52.198;9.904;2024-01-30T01:47:17;102067.81;;;3.72;100.00
16255;BME280;8235;52.198;9.904;2024-01-30T01:49:45;102064.31;;;3.72;100.00
16255;BME280;8235;52.198;9.904;2024-01-30T01:52:11;102065.22;;;3.71;100.00
16255;BME280;8235;52.198;9.904;2024-01-30T01:54:38;102059.06;;;3.70;100.00
16255;BME280;8235;52.198;9.904;2024-01-30T01:57:05;102061.69;;;3.70;100.00
16255;BME280;8235;52.198;9.904;2024-01-30T01:59:32;102052.03;;;3.72;100.00
16255;BME280;8235;52.198;9.904;2024-01-30T02:01:58;102054.63;;;3.75;100.00
16255;BME280;8235;52.198;9.904;2024-01-30T02:04:25;102046.66;;;3.78;100.00
16255;BME280;8235;52.198;9.904;2024-01-30T02:06:53;102039.56;;;3.82;100.00
16255;BME280;8235;52.198;9.904;2024-01-30T02:09:20;102049.19;;;3.86;100.00
16255;BME280;8235;52.198;9.904;2024-01-30T02:11:46;102044.66;;;3.96;100.00
16255;BME280;8235;52.198;9.904;2024-01-30T02:14:13;102050.75;;;3.99;100.00
16255;BME280;8235;52.198;9.904;2024-01-30T02:16:39;102041.94;;;4.03;100.00
16255;BME280;8235;52.198;9.904;2024-01-30T02:19:06;102046.31;;;4.04;100.00
16255;BME280;8235;52.198;9.904;2024-01-30T02:21:34;102041.06;;;4.03;100.00
16255;BME280;8235;52.198;9.904;2024-01-30T02:24:01;102034.91;;;4.02;100.00
16255;BME280;8235;52.198;9.904;2024-01-30T02:26:29;102033.16;;;4.01;100.00
16255;BME280;8235;52.198;9.904;2024-01-30T02:28:55;102031.41;;;4.02;100.00
16255;BME280;8235;52.198;9.904;2024-01-30T02:31:22;102031.41;;;4.02;100.00
16255;BME280;8235;52.198;9.904;2024-01-30T02:33:49;102026.09;;;4.03;100.00
16255;BME280;8235;52.198;9.904;2024-01-30T02:36:15;102021.66;;;4.07;100.00
16255;BME280;8235;52.198;9.904;2024-01-30T02:38:43;102016.38;;;4.08;100.00
16255;BME280;8235;52.198;9.904;2024-01-30T02:41:11;102014.59;;;4.09;100.00
16255;BME280;8235;52.198;9.904;2024-01-30T02:43:38;102011.09;;;4.08;100.00
16255;BME280;8235;52.198;9.904;2024-01-30T02:46:04;102011.06;;;4.11;100.00
16255;BME280;8235;52.198;9.904;2024-01-30T02:48:31;102012.72;;;4.15;100.00
16255;BME280;8235;52.198;9.904;2024-01-30T02:50:57;102005.69;;;4.16;100.00
16255;BME280;8235;52.198;9.904;2024-01-30T02:53:24;102001.28;;;4.16;100.00
16255;BME280;8235;52.198;9.904;2024-01-30T02:55:51;101998.63;;;4.18;100.00
16255;BME280;8235;52.198;9.904;2024-01-30T02:58:18;101995.09;;;4.21;100.00
16255;BME280;8235;52.198;9.904;2024-01-30T03:00:44;101997.69;;;4.22;100.00
16255;BME280;8235;52.198;9.904;2024-01-30T03:03:11;102002.06;;;4.25;100.00
16255;BME280;8235;52.198;9.904;2024-01-30T03:05:37;102000.28;;;4.25;100.00
16255;BME280;8235;52.198;9.904;2024-01-30T03:08:05;101995.03;;;4.24;100.00
16255;BME280;8235;52.198;9.904;2024-01-30T03:10:31;101994.19;;;4.22;100.00
16255;BME280;8235;52.198;9.904;2024-01-30T03:12:59;101998.59;;;4.21;100.00
16255;BME280;8235;52.198;9.904;2024-01-30T03:15:25;101994.22;;;4.20;100.00
16255;BME280;8235;52.198;9.904;2024-01-30T03:17:53;101986.31;;;4.18;100.00
16255;BME280;8235;52.198;9.904;2024-01-30T03:20:19;101972.28;;;4.18;100.00
16255;BME280;8235;52.198;9.904;2024-01-30T03:22:46;101974.88;;;4.19;100.00
16255;BME280;8235;52.198;9.904;2024-01-30T03:25:12;101973.09;;;4.22;100.00
16255;BME280;8235;52.198;9.904;2024-01-30T03:27:39;101973.06;;;4.25;100.00
16255;BME280;8235;52.198;9.904;2024-01-30T03:30:08;101966.88;;;4.26;100.00
16255;BME280;8235;52.198;9.904;2024-01-30T03:32:34;101973.88;;;4.28;100.00
16255;BME280;8235;52.198;9.904;2024-01-30T03:35:01;101969.41;;;4.30;100.00
16255;BME280;8235;52.198;9.904;2024-01-30T03:37:27;101980.81;;;4.32;100.00
16255;BME280;8235;52.198;9.904;2024-01-30T03:39:54;101981.69;;;4.33;100.00
16255;BME280;8235;52.198;9.904;2024-01-30T03:42:20;101967.63;;;4.32;100.00
16255;BME280;8235;52.198;9.904;2024-01-30T03:44:47;101968.50;;;4.33;100.00
16255;BME280;8235;52.198;9.904;2024-01-30T03:47:18;101977.31;;;4.32;100.00
16255;BME280;8235;52.198;9.904;2024-01-30T03:49:45;101972.94;;;4.31;100.00
16255;BME280;8235;52.198;9.904;2024-01-30T03:52:11;101975.56;;;4.31;100.00
16255;BME280;8235;52.198;9.904;2024-01-30T03:54:38;101973.00;;;4.29;100.00
16255;BME280;8235;52.198;9.904;2024-01-30T03:57:04;101972.13;;;4.29;100.00
16255;BME280;8235;52.198;9.904;2024-01-30T03:59:31;101972.13;;;4.27;100.00
16255;BME280;8235;52.198;9.904;2024-01-30T04:01:57;101966.00;;;4.27;100.00
16255;BME280;8235;52.198;9.904;2024-01-30T04:04:25;101968.66;;;4.24;100.00
16255;BME280;8235;52.198;9.904;2024-01-30T04:06:51;101973.09;;;4.22;100.00
16255;BME280;8235;52.198;9.904;2024-01-30T04:09:18;101964.34;;;4.19;100.00
16255;BME280;8235;52.198;9.904;2024-01-30T04:11:45;101966.13;;;4.17;100.00
16255;BME280;8235;52.198;9.904;2024-01-30T04:14:11;101970.56;;;4.14;100.00
16255;BME280;8235;52.198;9.904;2024-01-30T04:16:38;101960.09;;;4.11;100.00
16255;BME280;8235;52.198;9.904;2024-01-30T04:19:04;101965.41;;;4.08;100.00
16255;BME280;8235;52.198;9.904;2024-01-30T04:21:32;101958.44;;;4.04;100.00
16255;BME280;8235;52.198;9.904;2024-01-30T04:23:58;101959.34;;;4.01;100.00
16255;BME280;8235;52.198;9.904;2024-01-30T04:26:25;101961.16;;;3.98;100.00
16255;BME280;8235;52.198;9.904;2024-01-30T04:28:51;101963.84;;;3.95;100.00
16255;BME280;8235;52.198;9.904;2024-01-30T04:31:18;101964.78;;;3.92;100.00
16255;BME280;8235;52.198;9.904;2024-01-30T04:33:44;101964.78;;;3.92;100.00
16255;BME280;8235;52.198;9.904;2024-01-30T04:36:10;101966.56;;;3.90;100.00
16255;BME280;8235;52.198;9.904;2024-01-30T04:38:38;101966.59;;;3.87;100.00
16255;BME280;8235;52.198;9.904;2024-01-30T04:41:05;101968.38;;;3.85;100.00
16255;BME280;8235;52.198;9.904;2024-01-30T04:43:31;101966.66;;;3.84;100.00
16255;BME280;8235;52.198;9.904;2024-01-30T04:45:58;101963.16;;;3.82;100.00
16255;BME280;8235;52.198;9.904;2024-01-30T04:48:24;101966.69;;;3.79;100.00
16255;BME280;8235;52.198;9.904;2024-01-30T04:50:56;101970.25;;;3.77;100.00
16255;BME280;8235;52.198;9.904;2024-01-30T04:53:23;101973.84;;;3.73;100.00
16255;BME280;8235;52.198;9.904;2024-01-30T04:55:51;101972.13;;;3.70;100.00
16255;BME280;8235;52.198;9.904;2024-01-30T04:58:17;101974.78;;;3.67;100.00
16255;BME280;8235;52.198;9.904;2024-01-30T05:00:44;101970.44;;;3.65;100.00
16255;BME280;8235;52.198;9.904;2024-01-30T05:03:11;101973.09;;;3.62;100.00
16255;BME280;8235;52.198;9.904;2024-01-30T05:05:37;101975.75;;;3.60;100.00
16255;BME280;8235;52.198;9.904;2024-01-30T05:08:04;101973.19;;;3.57;100.00
16255;BME280;8235;52.198;9.904;2024-01-30T05:10:31;101970.59;;;3.54;100.00
16255;BME280;8235;52.198;9.904;2024-01-30T05:12:58;101970.63;;;3.51;100.00
16255;BME280;8235;52.198;9.904;2024-01-30T05:15:25;101973.28;;;3.48;100.00
16255;BME280;8235;52.198;9.904;2024-01-30T05:17:51;101964.56;;;3.44;100.00
16255;BME280;8235;52.198;9.904;2024-01-30T05:20:19;101961.97;;;3.41;100.00
16255;BME280;8235;52.198;9.904;2024-01-30T05:22:46;101967.28;;;3.38;100.00
16255;BME280;8235;52.198;9.904;2024-01-30T05:25:13;101969.09;;;3.35;100.00
16255;BME280;8235;52.198;9.904;2024-01-30T05:27:39;101966.47;;;3.33;100.00
16255;BME280;8235;52.198;9.904;2024-01-30T05:30:08;101965.59;;;3.31;100.00
16255;BME280;8235;52.198;9.904;2024-01-30T05:32:35;101960.34;;;3.31;100.00
16255;BME280;8235;52.198;9.904;2024-01-30T05:35:01;101962.09;;;3.32;100.00
16255;BME280;8235;52.198;9.904;2024-01-30T05:37:28;101962.13;;;3.28;100.00
16255;BME280;8235;52.198;9.904;2024-01-30T05:39:54;101953.41;;;3.24;100.00
16255;BME280;8235;52.198;9.904;2024-01-30T05:42:21;101956.03;;;3.23;100.00
16255;BME280;8235;52.198;9.904;2024-01-30T05:44:47;101955.22;;;3.22;100.00
16255;BME280;8235;52.198;9.904;2024-01-30T05:47:15;101966.63;;;3.21;100.00
16255;BME280;8235;52.198;9.904;2024-01-30T05:49:41;101955.16;;;3.24;100.00
16255;BME280;8235;52.198;9.904;2024-01-30T05:52:08;101958.63;;;3.27;100.00
16255;BME280;8235;52.198;9.904;2024-01-30T05:54:35;101963.88;;;3.30;100.00
16255;BME280;8235;52.198;9.904;2024-01-30T05:57:01;101961.19;;;3.33;100.00
16255;BME280;8235;52.198;9.904;2024-01-30T05:59:28;101960.34;;;3.31;100.00
16255;BME280;8235;52.198;9.904;2024-01-30T06:01:54;101961.22;;;3.30;100.00
16255;BME280;8235;52.198;9.904;2024-01-30T06:04:22;101963.00;;;3.28;100.00
16255;BME280;8235;52.198;9.904;2024-01-30T06:06:49;101973.53;;;3.28;100.00
16255;BME280;8235;52.198;9.904;2024-01-30T06:09:15;101969.16;;;3.27;100.00
16255;BME280;8235;52.198;9.904;2024-01-30T06:11:42;101962.19;;;3.23;100.00
16255;BME280;8235;52.198;9.904;2024-01-30T06:14:08;101960.41;;;3.24;100.00
16255;BME280;8235;52.198;9.904;2024-01-30T06:16:35;101966.66;;;3.20;100.00
16255;BME280;8235;52.198;9.904;2024-01-30T06:19:01;101970.16;;;3.19;100.00
16255;BME280;8235;52.198;9.904;2024-01-30T06:21:29;101965.78;;;3.19;100.00
16255;BME280;8235;52.198;9.904;2024-01-30T06:23:55;101964.91;;;3.19;100.00
16255;BME280;8235;52.198;9.904;2024-01-30T06:26:22;101958.78;;;3.15;100.00
16255;BME280;8235;52.198;9.904;2024-01-30T06:28:48;101963.16;;;3.16;100.00
16255;BME280;8235;52.198;9.904;2024-01-30T06:31:15;101958.78;;;3.17;100.00
16255;BME280;8235;52.198;9.904;2024-01-30T06:33:41;101958.75;;;3.18;100.00
16255;BME280;8235;52.198;9.904;2024-01-30T06:36:08;101952.59;;;3.21;100.00
16255;BME280;8235;52.198;9.904;2024-01-30T06:38:36;101951.66;;;3.23;100.00
16255;BME280;8235;52.198;9.904;2024-01-30T06:41:03;101949.00;;;3.25;100.00
16255;BME280;8235;52.198;9.904;2024-01-30T06:43:30;101940.22;;;3.26;100.00
16255;BME280;8235;52.198;9.904;2024-01-30T06:45:56;101938.47;;;3.26;100.00
16255;BME280;8235;52.198;9.904;2024-01-30T06:48:23;101941.09;;;3.26;100.00
16255;BME280;8235;52.198;9.904;2024-01-30T06:50:49;101939.34;;;3.25;100.00
16255;BME280;8235;52.198;9.904;2024-01-30T06:53:16;101934.09;;;3.24;100.00
16255;BME280;8235;52.198;9.904;2024-01-30T06:55:44;101936.78;;;3.22;100.00
16255;BME280;8235;52.198;9.904;2024-01-30T06:58:11;101935.06;;;3.18;100.00
16255;BME280;8235;52.198;9.904;2024-01-30T07:00:37;101942.97;;;3.17;100.00
16255;BME280;8235;52.198;9.904;2024-01-30T07:03:04;101936.84;;;3.14;100.00
16255;BME280;8235;52.198;9.904;2024-01-30T07:05:31;101937.75;;;3.13;100.00
16255;BME280;8235;52.198;9.904;2024-01-30T07:07:58;101935.13;;;3.12;100.00
16255;BME280;8235;52.198;9.904;2024-01-30T07:10:24;101933.31;;;3.19;100.00
16255;BME280;8235;52.198;9.904;2024-01-30T07:12:52;101940.19;;;3.29;100.00
16255;BME280;8235;52.198;9.904;2024-01-30T07:15:19;101930.47;;;3.35;100.00
16255;BME280;8235;52.198;9.904;2024-01-30T07:17:45;101928.59;;;3.40;100.00
16255;BME280;8235;52.198;9.904;2024-01-30T07:20:12;101935.56;;;3.46;100.00
16255;BME280;8235;52.198;9.904;2024-01-30T07:22:39;101931.06;;;3.54;100.00
16255;BME280;8235;52.198;9.904;2024-01-30T07:25:06;101930.94;;;3.62;100.00
16255;BME280;8235;52.198;9.904;2024-01-30T07:27:33;101938.81;;;3.65;100.00
16255;BME280;8235;52.198;9.904;2024-01-30T07:30:01;101936.09;;;3.72;100.00
16255;BME280;8235;52.198;9.904;2024-01-30T07:32:27;101937.75;;;3.76;100.00
16255;BME280;8235;52.198;9.904;2024-01-30T07:34:54;101925.41;;;3.81;100.00
16255;BME280;8235;52.198;9.904;2024-01-30T07:37:20;101935.88;;;3.86;100.00
16255;BME280;8235;52.198;9.904;2024-01-30T07:39:47;101941.09;;;3.89;100.00
16255;BME280;8235;52.198;9.904;2024-01-30T07:42:13;101934.91;;;3.93;100.00
16255;BME280;8235;52.198;9.904;2024-01-30T07:44:39;101935.69;;;3.97;100.00
16255;BME280;8235;52.198;9.904;2024-01-30T07:47:07;101936.53;;;3.99;100.00
16255;BME280;8235;52.198;9.904;2024-01-30T07:49:34;101933.00;;;4.01;100.00
16255;BME280;8235;52.198;9.904;2024-01-30T07:52:00;101936.47;;;4.03;100.00
16255;BME280;8235;52.198;9.904;2024-01-30T07:54:27;101932.94;;;4.06;100.00
16255;BME280;8235;52.198;9.904;2024-01-30T07:56:58;101937.28;;;4.08;100.00
16255;BME280;8235;52.198;9.904;2024-01-30T07:59:25;101933.75;;;4.09;100.00
16255;BME280;8235;52.198;9.904;2024-01-30T08:01:51;101938.13;;;4.12;100.00
16255;BME280;8235;52.198;9.904;2024-01-30T08:04:19;101936.28;;;4.14;100.00
16255;BME280;8235;52.198;9.904;2024-01-30T08:06:45;101936.28;;;4.14;100.00
16255;BME280;8235;52.198;9.904;2024-01-30T08:09:12;101937.19;;;4.13;100.00
16255;BME280;8235;52.198;9.904;2024-01-30T08:11:38;101941.56;;;4.14;100.00
16255;BME280;8235;52.198;9.904;2024-01-30T08:14:05;101940.69;;;4.13;100.00
16255;BME280;8235;52.198;9.904;2024-01-30T08:16:31;101935.38;;;4.16;100.00
16255;BME280;8235;52.198;9.904;2024-01-30T08:18:58;101939.75;;;4.17;100.00
16255;BME280;8235;52.198;9.904;2024-01-30T08:21:26;101937.06;;;4.21;100.00
16255;BME280;8235;52.198;9.904;2024-01-30T08:23:52;101936.19;;;4.22;100.00
16255;BME280;8235;52.198;9.904;2024-01-30T08:26:19;101938.78;;;4.23;100.00
16255;BME280;8235;52.198;9.904;2024-01-30T08:28:45;101934.38;;;4.25;100.00
16255;BME280;8235;52.198;9.904;2024-01-30T08:31:12;101934.31;;;4.28;100.00
16255;BME280;8235;52.198;9.904;2024-01-30T08:33:38;101927.22;;;4.30;100.00
16255;BME280;8235;52.198;9.904;2024-01-30T08:36:05;101922.81;;;4.32;100.00
16255;BME280;8235;52.198;9.904;2024-01-30T08:38:33;101921.84;;;4.36;100.00
16255;BME280;8235;52.198;9.904;2024-01-30T08:40:59;101918.31;;;4.39;100.00
16255;BME280;8235;52.198;9.904;2024-01-30T08:43:26;101919.13;;;4.42;100.00
16255;BME280;8235;52.198;9.904;2024-01-30T08:45:52;101917.34;;;4.44;100.00
16255;BME280;8235;52.198;9.904;2024-01-30T08:48:19;101919.88;;;4.49;100.00
16255;BME280;8235;52.198;9.904;2024-01-30T08:50:46;101918.94;;;4.51;100.00
16255;BME280;8235;52.198;9.904;2024-01-30T08:53:13;101917.13;;;4.55;100.00
16255;BME280;8235;52.198;9.904;2024-01-30T08:55:40;101923.16;;;4.63;100.00
16255;BME280;8235;52.198;9.904;2024-01-30T08:58:07;101922.97;;;4.72;100.00
16255;BME280;8235;52.198;9.904;2024-01-30T09:00:33;101916.69;;;4.79;100.00
16255;BME280;8235;52.198;9.904;2024-01-30T09:03:00;101927.03;;;4.88;100.00
16255;BME280;8235;52.198;9.904;2024-01-30T09:05:26;101923.38;;;4.97;100.00
16255;BME280;8235;52.198;9.904;2024-01-30T09:07:53;101925.81;;;5.05;100.00
16255;BME280;8235;52.198;9.904;2024-01-30T09:10:19;101926.63;;;5.10;100.00
16255;BME280;8235;52.198;9.904;2024-01-30T09:12:47;101921.19;;;5.17;100.00
16255;BME280;8235;52.198;9.904;2024-01-30T09:15:14;101926.22;;;5.28;100.00
16255;BME280;8235;52.198;9.904;2024-01-30T09:17:41;101926.88;;;5.39;100.00
16255;BME280;8235;52.198;9.904;2024-01-30T09:20:08;101921.41;;;5.48;100.00
16255;BME280;8235;52.198;9.904;2024-01-30T09:22:35;101921.22;;;5.56;100.00
16255;BME280;8235;52.198;9.904;2024-01-30T09:25:02;101926.31;;;5.65;100.00
16255;BME280;8235;52.198;9.904;2024-01-30T09:27:28;101926.97;;;5.73;100.00
16255;BME280;8235;52.198;9.904;2024-01-30T09:29:56;101911.81;;;5.81;100.00
16255;BME280;8235;52.198;9.904;2024-01-30T09:32:22;101920.34;;;5.94;100.00
16255;BME280;8235;52.198;9.904;2024-01-30T09:34:49;101916.69;;;6.00;100.00
16255;BME280;8235;52.198;9.904;2024-01-30T09:37:15;101911.25;;;6.07;100.00
16255;BME280;8235;52.198;9.904;2024-01-30T09:39:43;101916.44;;;6.10;100.00
16255;BME280;8235;52.198;9.904;2024-01-30T09:42:13;101917.16;;;6.17;100.00
16255;BME280;8235;52.198;9.904;2024-01-30T09:44:44;101915.16;;;6.26;99.03
16255;BME280;8235;52.198;9.904;2024-01-30T09:47:15;101904.44;;;6.31;98.75
16255;BME280;8235;52.198;9.904;2024-01-30T09:49:43;101898.97;;;6.39;98.67
16255;BME280;8235;52.198;9.904;2024-01-30T09:52:10;101899.63;;;6.47;98.17
16255;BME280;8235;52.198;9.904;2024-01-30T09:54:38;101895.84;;;6.57;97.22
16255;BME280;8235;52.198;9.904;2024-01-30T09:57:04;101899.22;;;6.62;96.28
16255;BME280;8235;52.198;9.904;2024-01-30T09:59:33;101900.88;;;6.66;95.76
16255;BME280;8235;52.198;9.904;2024-01-30T10:02:00;101900.66;;;6.74;95.11
16255;BME280;8235;52.198;9.904;2024-01-30T10:04:30;101893.44;;;6.80;94.52
16255;BME280;8235;52.198;9.904;2024-01-30T10:06:57;101902.06;;;6.87;95.07
16255;BME280;8235;52.198;9.904;2024-01-30T10:09:24;101914.34;;;6.89;94.41
16255;BME280;8235;52.198;9.904;2024-01-30T10:11:51;101910.78;;;6.90;95.29
16255;BME280;8235;52.198;9.904;2024-01-30T10:14:17;101919.47;;;6.95;95.30
16255;BME280;8235;52.198;9.904;2024-01-30T10:16:45;101913.16;;;7.00;94.47
16255;BME280;8235;52.198;9.904;2024-01-30T10:19:12;101914.59;;;7.11;92.40
16255;BME280;8235;52.198;9.904;2024-01-30T10:21:40;101913.66;;;7.14;92.58
16255;BME280;8235;52.198;9.904;2024-01-30T10:24:07;101912.72;;;7.16;92.95
16255;BME280;8235;52.198;9.904;2024-01-30T10:26:33;101917.00;;;7.19;91.87
16255;BME280;8235;52.198;9.904;2024-01-30T10:29:00;101907.13;;;7.25;91.93
16255;BME280;8235;52.198;9.904;2024-01-30T10:31:26;101903.38;;;7.32;90.78
16255;BME280;8235;52.198;9.904;2024-01-30T10:33:52;101898.75;;;7.39;90.44
16255;BME280;8235;52.198;9.904;2024-01-30T10:36:24;101898.63;;;7.44;90.23
16255;BME280;8235;52.198;9.904;2024-01-30T10:38:59;101897.63;;;7.48;90.60
16255;BME280;8235;52.198;9.904;2024-01-30T10:41:26;101895.63;;;7.54;90.41
16255;BME280;8235;52.198;9.904;2024-01-30T10:44:01;101877.75;;;7.61;89.90
16255;BME280;8235;52.198;9.904;2024-01-30T10:46:31;101879.25;;;7.70;89.07
16255;BME280;8235;52.198;9.904;2024-01-30T10:48:59;101880.81;;;7.75;88.93
16255;BME280;8235;52.198;9.904;2024-01-30T10:51:26;101890.13;;;7.88;88.12
16255;BME280;8235;52.198;9.904;2024-01-30T10:53:53;101873.97;;;7.96;87.34
16255;BME280;8235;52.198;9.904;2024-01-30T10:56:22;101863.22;;;8.00;86.56
16255;BME280;8235;52.198;9.904;2024-01-30T10:58:50;101871.06;;;8.04;86.47
16255;BME280;8235;52.198;9.904;2024-01-30T11:01:17;101863.81;;;8.09;85.81
16255;BME280;8235;52.198;9.904;2024-01-30T11:03:45;101861.91;;;8.12;86.32
16255;BME280;8235;52.198;9.904;2024-01-30T11:06:11;101861.88;;;8.14;86.67
16255;BME280;8235;52.198;9.904;2024-01-30T11:08:39;101865.34;;;8.16;86.28
16255;BME280;8235;52.198;9.904;2024-01-30T11:11:19;101853.66;;;8.21;86.10
16255;BME280;8235;52.198;9.904;2024-01-30T11:13:54;101858.72;;;8.27;86.42
16255;BME280;8235;52.198;9.904;2024-01-30T11:16:21;101844.44;;;8.31;85.91
16255;BME280;8235;52.198;9.904;2024-01-30T11:18:50;101849.41;;;8.42;85.70
16255;BME280;8235;52.198;9.904;2024-01-30T11:21:16;101864.19;;;8.49;84.70
16255;BME280;8235;52.198;9.904;2024-01-30T11:23:43;101859.72;;;8.51;84.64
16255;BME280;8235;52.198;9.904;2024-01-30T11:26:10;101860.47;;;8.55;84.15
16255;BME280;8235;52.198;9.904;2024-01-30T11:28:37;101863.81;;;8.60;84.51
16255;BME280;8235;52.198;9.904;2024-01-30T11:31:06;101861.91;;;8.63;83.90
16255;BME280;8235;52.198;9.904;2024-01-30T11:33:33;101854.53;;;8.72;84.50
16255;BME280;8235;52.198;9.904;2024-01-30T11:36:00;101854.44;;;8.75;84.39
16255;BME280;8235;52.198;9.904;2024-01-30T11:38:27;101847.81;;;8.86;84.17
16255;BME280;8235;52.198;9.904;2024-01-30T11:40:55;101851.16;;;8.91;83.89
16255;BME280;8235;52.198;9.904;2024-01-30T11:43:21;101845.59;;;8.97;83.43
16255;BME280;8235;52.198;9.904;2024-01-30T11:45:49;101858.66;;;9.03;82.94
16255;BME280;8235;52.198;9.904;2024-01-30T11:48:17;101853.25;;;9.07;82.66
16255;BME280;8235;52.198;9.904;2024-01-30T11:50:43;101852.31;;;9.08;82.67
16255;BME280;8235;52.198;9.904;2024-01-30T11:53:11;101853.94;;;9.12;82.36
16255;BME280;8235;52.198;9.904;2024-01-30T11:55:37;101843.16;;;9.15;81.99
16255;BME280;8235;52.198;9.904;2024-01-30T11:58:04;101842.94;;;9.21;81.47
16255;BME280;8235;52.198;9.904;2024-01-30T12:00:31;101833.94;;;9.25;81.06
16255;BME280;8235;52.198;9.904;2024-01-30T12:02:58;101838.31;;;9.26;80.60
16255;BME280;8235;52.198;9.904;2024-01-30T12:05:27;101834.69;;;9.28;81.37
16255;BME280;8235;52.198;9.904;2024-01-30T12:07:54;101824.84;;;9.30;81.45
16255;BME280;8235;52.198;9.904;2024-01-30T12:10:24;101821.19;;;9.33;81.63
16255;BME280;8235;52.198;9.904;2024-01-30T12:12:50;101820.25;;;9.34;81.79
16255;BME280;8235;52.198;9.904;2024-01-30T12:15:19;101814.00;;;9.35;82.05
16255;BME280;8235;52.198;9.904;2024-01-30T12:17:47;101808.59;;;9.38;81.77
16255;BME280;8235;52.198;9.904;2024-01-30T12:20:17;101811.06;;;9.43;81.00
16255;BME280;8235;52.198;9.904;2024-01-30T12:22:47;101804.81;;;9.44;81.01
16255;BME280;8235;52.198;9.904;2024-01-30T12:25:14;101805.56;;;9.47;81.27
16255;BME280;8235;52.198;9.904;2024-01-30T12:27:43;101812.34;;;9.54;81.17
16255;BME280;8235;52.198;9.904;2024-01-30T12:30:10;101813.97;;;9.58;80.65
16255;BME280;8235;52.198;9.904;2024-01-30T12:32:40;101813.91;;;9.60;80.68
16255;BME280;8235;52.198;9.904;2024-01-30T12:35:07;101806.69;;;9.63;80.31
16255;BME280;8235;52.198;9.904;2024-01-30T12:37:34;101817.09;;;9.68;80.66
16255;BME280;8235;52.198;9.904;2024-01-30T12:40:03;101818.66;;;9.73;80.51
16255;BME280;8235;52.198;9.904;2024-01-30T12:42:31;101827.44;;;9.75;80.81
16255;BME280;8235;52.198;9.904;2024-01-30T12:44:58;101816.63;;;9.80;81.18
16255;BME280;8235;52.198;9.904;2024-01-30T12:47:25;101805.78;;;9.85;81.22
16255;BME280;8235;52.198;9.904;2024-01-30T12:49:51;101820.66;;;9.89;80.76
16255;BME280;8235;52.198;9.904;2024-01-30T12:52:19;101817.56;;;9.99;80.28
16255;BME280;8235;52.198;9.904;2024-01-30T12:54:46;101825.09;;;10.10;79.45
16255;BME280;8235;52.198;9.904;2024-01-30T12:57:14;101821.81;;;10.25;78.13
16255;BME280;8235;52.198;9.904;2024-01-30T12:59:40;101824.47;;;10.25;78.20
16255;BME280;8235;52.198;9.904;2024-01-30T13:02:07;101816.03;;;10.36;77.80